Time;durP1;ratioP1;P1;durP2;ratioP2;P2;SDS_P1;SDS_P2;PMS_P1;PMS_P2;Temp;Humidity;BMP_temperature;BMP_pressure;BME280_temperature;BME280_humidity;BME280_pressure;Samples;Min_cycle;Max_cycle;Signal;HPM_P1;HPM_P2
2022/02/16 00:01:46;;;;;;;2.55;1.40;;;;;;;7.06;97.24;100264.13;5052216;28;20040;-77
2022/02/16 00:04:11;;;;;;;5.82;1.25;;;;;;;7.05;97.59;100259.94;5049003;28;20044;-77
2022/02/16 00:06:38;;;;;;;2.10;1.05;;;;;;;7.00;97.75;100255.19;5066202;28;20035;-77
2022/02/16 00:09:04;;;;;;;4.47;1.20;;;;;;;7.03;98.02;100254.13;5048712;28;20047;-77
2022/02/16 00:11:30;;;;;;;2.80;1.17;;;;;;;6.97;98.45;100241.81;5035043;28;20441;-76
2022/02/16 00:13:56;;;;;;;5.28;1.67;;;;;;;6.99;97.96;100237.31;5055944;28;20078;-77
2022/02/16 00:16:22;;;;;;;1.13;1.00;;;;;;;6.91;98.43;100244.97;5069206;28;20036;-77
2022/02/16 00:18:48;;;;;;;2.03;1.10;;;;;;;7.07;98.12;100228.84;5035175;28;20032;-76
2022/02/16 00:21:13;;;;;;;2.67;1.00;;;;;;;6.99;97.98;100224.44;5046415;28;20597;-76
2022/02/16 00:23:39;;;;;;;3.60;1.30;;;;;;;7.09;97.69;100219.19;5049096;28;20036;-76
2022/02/16 00:26:05;;;;;;;1.60;0.93;;;;;;;7.16;97.55;100231.34;5050427;28;20035;-76
2022/02/16 00:28:32;;;;;;;1.88;0.73;;;;;;;7.05;97.69;100217.88;5048236;28;20037;-76
2022/02/16 00:30:58;;;;;;;3.53;1.00;;;;;;;7.11;97.43;100214.72;5045885;28;20037;-76
2022/02/16 00:33:23;;;;;;;2.08;1.15;;;;;;;7.07;97.98;100203.06;5048326;28;20028;-78
2022/02/16 00:35:49;;;;;;;1.73;0.90;;;;;;;7.01;97.67;100207.84;5031344;28;20044;-75
2022/02/16 00:38:15;;;;;;;1.90;0.90;;;;;;;7.09;97.95;100204.53;5048315;28;20060;-76
2022/02/16 00:40:41;;;;;;;1.80;1.02;;;;;;;7.14;97.87;100207.50;5043950;28;20767;-76
2022/02/16 00:43:06;;;;;;;2.63;0.95;;;;;;;7.07;97.94;100196.13;5060862;28;20120;-75
2022/02/16 00:45:32;;;;;;;1.98;1.00;;;;;;;7.16;97.58;100197.84;5046288;28;20530;-76
2022/02/16 00:48:02;;;;;;;1.85;1.05;;;;;;;7.18;97.67;100190.75;5063953;28;20048;-76
2022/02/16 00:50:29;;;;;;;2.63;1.13;;;;;;;7.15;97.49;100185.09;5047330;28;20063;-76
2022/02/16 00:52:55;;;;;;;2.47;0.90;;;;;;;7.08;97.90;100176.31;5063411;28;20032;-75
2022/02/16 00:55:20;;;;;;;2.20;0.90;;;;;;;7.19;97.86;100179.47;5050777;28;20037;-76
2022/02/16 00:57:46;;;;;;;2.92;1.10;;;;;;;7.19;97.62;100189.78;5036076;28;20039;-76
2022/02/16 01:00:16;;;;;;;2.88;1.48;;;;;;;7.17;97.62;100178.00;5046215;28;20031;-76
2022/02/16 01:02:47;;;;;;;1.45;0.98;;;;;;;7.22;97.68;100173.22;5043842;28;20567;-76
2022/02/16 01:05:13;;;;;;;2.25;1.35;;;;;;;7.21;97.69;100169.00;5044888;28;20029;-76
2022/02/16 01:07:41;;;;;;;3.35;1.10;;;;;;;7.24;97.75;100158.41;5050367;28;20177;-76
2022/02/16 01:10:09;;;;;;;2.88;1.00;;;;;;;7.26;97.06;100145.38;5043384;28;20082;-76
2022/02/16 01:12:35;;;;;;;1.52;1.20;;;;;;;7.29;97.69;100147.63;5033349;28;20028;-76
2022/02/16 01:15:01;;;;;;;4.47;1.60;;;;;;;7.25;97.86;100147.13;5066214;28;20031;-76
2022/02/16 01:17:29;;;;;;;3.28;1.17;;;;;;;7.20;97.97;100134.69;5043784;28;20037;-75
2022/02/16 01:20:06;;;;;;;2.30;1.00;;;;;;;7.29;97.94;100139.88;5047461;28;20475;-77
2022/02/16 01:22:33;;;;;;;2.45;1.23;;;;;;;7.30;97.91;100139.75;5048161;28;20104;-76
2022/02/16 01:25:04;;;;;;;4.00;2.07;;;;;;;7.31;97.84;100133.63;5049349;28;20074;-78
2022/02/16 01:27:30;;;;;;;2.92;1.30;;;;;;;7.26;97.75;100133.28;5066801;28;20044;-77
2022/02/16 01:29:56;;;;;;;1.45;1.02;;;;;;;7.24;98.31;100132.63;5046391;28;20530;-78
2022/02/16 01:32:54;;;;;;;2.15;0.95;;;;;;;7.22;98.39;100125.03;5038453;28;20048;-76
2022/02/16 01:35:27;;;;;;;2.92;0.95;;;;;;;7.29;98.01;100116.69;5048431;28;20039;-77
2022/02/16 01:37:52;;;;;;;1.02;0.80;;;;;;;7.25;98.01;100112.78;5046804;28;20045;-76
2022/02/16 01:40:18;;;;;;;3.03;1.45;;;;;;;7.18;98.20;100105.66;5066365;28;20331;-77
2022/02/16 01:42:46;;;;;;;3.28;1.20;;;;;;;7.17;98.85;100104.03;5064086;28;20036;-76
2022/02/16 01:45:30;;;;;;;2.22;1.20;;;;;;;7.21;98.42;100115.69;5037431;28;20035;-77
2022/02/16 01:47:57;;;;;;;1.88;1.20;;;;;;;7.30;98.25;100102.84;5050886;28;20241;-75
2022/02/16 01:50:24;;;;;;;1.80;1.10;;;;;;;7.37;98.04;100094.34;5064926;28;20099;-75
2022/02/16 01:52:49;;;;;;;1.70;1.10;;;;;;;7.25;97.84;100090.38;5032446;28;20044;-76
2022/02/16 01:55:16;;;;;;;1.33;1.02;;;;;;;7.27;97.96;100103.97;5047227;28;20032;-76
2022/02/16 01:57:43;;;;;;;2.15;1.20;;;;;;;7.30;98.05;100089.94;5048167;28;20040;-76
2022/02/16 02:00:12;;;;;;;1.52;1.00;;;;;;;7.29;98.37;100089.16;5048056;28;20426;-77
2022/02/16 02:02:43;;;;;;;2.30;0.98;;;;;;;7.35;98.21;100092.88;5049937;28;20739;-77
2022/02/16 02:05:50;;;;;;;4.47;1.30;;;;;;;7.24;98.83;100086.19;5039490;28;20047;-76
2022/02/16 02:08:21;;;;;;;2.28;1.15;;;;;;;7.29;98.97;100091.72;5048058;28;20081;-77
2022/02/16 02:10:48;;;;;;;1.27;1.00;;;;;;;7.17;99.28;100082.59;5047481;28;20064;-76
2022/02/16 02:13:16;;;;;;;3.30;1.10;;;;;;;7.21;99.23;100074.44;5033726;28;20035;-76
2022/02/16 02:15:46;;;;;;;1.25;0.88;;;;;;;7.23;98.68;100071.69;5046809;28;20044;-76
2022/02/16 02:18:20;;;;;;;5.85;1.00;;;;;;;7.27;99.13;100070.44;5047128;28;20040;-75
2022/02/16 02:20:46;;;;;;;2.25;1.10;;;;;;;7.19;99.17;100053.13;5046366;28;20079;-76
2022/02/16 02:23:13;;;;;;;1.85;1.10;;;;;;;7.27;99.11;100054.97;5049131;28;20037;-77
2022/02/16 02:25:44;;;;;;;1.50;1.00;;;;;;;7.34;98.72;100055.94;5032359;28;20033;-77
2022/02/16 02:28:10;;;;;;;1.38;0.95;;;;;;;7.34;99.27;100052.56;5029234;28;20037;-77
2022/02/16 02:30:35;;;;;;;2.38;1.67;;;;;;;7.27;98.88;100049.81;5063276;28;20506;-77
2022/02/16 02:33:01;;;;;;;1.40;1.20;;;;;;;7.26;99.43;100052.53;5046665;28;20037;-76
2022/02/16 02:35:27;;;;;;;6.53;1.27;;;;;;;7.26;99.12;100037.84;5047279;28;20143;-76
2022/02/16 02:37:52;;;;;;;2.42;1.10;;;;;;;7.29;99.70;100039.31;5064562;28;20032;-76
2022/02/16 02:40:18;;;;;;;2.10;1.00;;;;;;;7.31;99.57;100021.91;5032951;28;20495;-76
2022/02/16 02:42:44;;;;;;;2.22;1.00;;;;;;;7.25;99.52;100019.97;5053434;28;20032;-76
2022/02/16 02:45:11;;;;;;;2.55;1.27;;;;;;;7.29;99.60;100013.53;5052907;28;20045;-75
2022/02/16 02:47:38;;;;;;;1.77;1.20;;;;;;;7.21;99.35;100009.97;5049520;28;20533;-75
2022/02/16 02:50:05;;;;;;;2.03;1.27;;;;;;;7.37;99.17;99990.38;5051108;28;20032;-76
2022/02/16 02:52:31;;;;;;;1.00;0.90;;;;;;;7.40;98.43;99982.31;5067710;28;20513;-77
2022/02/16 02:54:58;;;;;;;1.88;1.05;;;;;;;7.38;98.68;99985.06;5051257;28;20035;-76
2022/02/16 02:57:24;;;;;;;2.35;1.30;;;;;;;7.43;98.37;99992.31;5051839;28;20036;-76
2022/02/16 02:59:49;;;;;;;2.65;1.27;;;;;;;7.44;98.18;99980.22;5049843;28;20028;-75
2022/02/16 03:02:15;;;;;;;1.60;1.05;;;;;;;7.41;98.47;99979.56;5049997;28;20035;-76
2022/02/16 03:04:40;;;;;;;1.83;1.20;;;;;;;7.36;98.08;99984.38;5032724;28;20423;-76
2022/02/16 03:07:06;;;;;;;1.35;0.90;;;;;;;7.36;98.51;99983.56;5035532;28;20025;-75
2022/02/16 03:09:31;;;;;;;2.88;0.93;;;;;;;7.41;98.61;99966.69;5049512;28;20032;-77
2022/02/16 03:11:57;;;;;;;2.08;1.00;;;;;;;7.45;97.82;99980.06;5047500;28;20036;-76
2022/02/16 03:14:23;;;;;;;1.17;0.90;;;;;;;7.45;98.21;99966.38;5049486;28;20391;-76
2022/02/16 03:16:49;;;;;;;4.70;0.90;;;;;;;7.48;98.11;99976.38;5050184;28;20040;-76
2022/02/16 03:19:14;;;;;;;1.73;0.80;;;;;;;7.42;98.31;99972.63;5048709;28;20039;-76
2022/02/16 03:21:40;;;;;;;1.10;0.95;;;;;;;7.48;97.79;99969.47;5049474;28;20039;-76
2022/02/16 03:24:08;;;;;;;1.05;0.50;;;;;;;7.42;98.03;99959.75;5066633;28;20467;-76
2022/02/16 03:26:34;;;;;;;0.75;0.60;;;;;;;7.51;97.68;99960.59;5048971;28;20062;-76
2022/02/16 03:29:00;;;;;;;0.98;0.80;;;;;;;7.50;97.52;99962.38;5050573;28;20062;-75
2022/02/16 03:31:30;;;;;;;2.58;1.00;;;;;;;7.46;97.63;99957.66;5049497;28;20020;-76
2022/02/16 03:34:01;;;;;;;1.42;0.80;;;;;;;7.59;97.17;99966.59;5048476;28;20063;-77
2022/02/16 03:36:27;;;;;;;1.08;0.70;;;;;;;7.59;97.27;99953.69;5065728;28;20502;-75
2022/02/16 03:38:54;;;;;;;1.77;0.77;;;;;;;7.64;97.11;99960.16;5031669;28;20028;-76
2022/02/16 03:41:23;;;;;;;3.58;1.00;;;;;;;7.53;97.54;99961.22;5050972;28;20035;-76
2022/02/16 03:43:49;;;;;;;1.75;0.80;;;;;;;7.50;97.70;99959.78;5048957;28;20037;-75
2022/02/16 03:46:18;;;;;;;1.35;0.90;;;;;;;7.50;97.65;99953.81;5049497;28;20133;-75
2022/02/16 03:48:46;;;;;;;2.25;1.00;;;;;;;7.55;97.77;99947.22;5048672;28;20079;-78
2022/02/16 03:51:13;;;;;;;6.40;1.23;;;;;;;7.73;96.83;99959.22;5063996;28;20028;-75
2022/02/16 03:53:39;;;;;;;1.73;0.90;;;;;;;7.54;97.14;99955.13;5069470;28;20113;-76
2022/02/16 03:56:05;;;;;;;2.83;1.00;;;;;;;7.60;97.59;99944.16;5064647;28;20032;-75
2022/02/16 03:58:31;;;;;;;1.08;0.82;;;;;;;7.62;97.08;99936.28;5049594;28;20056;-76
2022/02/16 04:00:57;;;;;;;0.95;0.75;;;;;;;7.52;97.36;99944.16;5050552;28;20040;-76
2022/02/16 04:03:23;;;;;;;1.63;1.00;;;;;;;7.55;97.83;99936.91;5047817;28;20422;-76
2022/02/16 04:05:49;;;;;;;1.77;1.00;;;;;;;7.53;98.03;99933.66;5047786;28;20458;-76
2022/02/16 04:08:15;;;;;;;0.82;0.68;;;;;;;7.66;97.76;99937.56;5030190;28;20033;-75
2022/02/16 04:10:43;;;;;;;2.03;0.70;;;;;;;7.69;97.11;99927.75;5050652;28;20024;-77
2022/02/16 04:13:09;;;;;;;1.77;1.20;;;;;;;7.58;97.29;99923.69;5049328;28;20122;-75
2022/02/16 04:15:36;;;;;;;0.90;0.70;;;;;;;7.63;97.83;99920.63;5069640;28;20044;-76
2022/02/16 04:18:06;;;;;;;0.95;0.80;;;;;;;7.66;97.87;99919.50;5031423;28;20028;-76
2022/02/16 04:20:32;;;;;;;0.93;0.68;;;;;;;7.69;97.71;99914.03;5031736;28;20031;-76
2022/02/16 04:22:57;;;;;;;3.28;0.80;;;;;;;7.74;97.33;99904.84;5030975;28;20487;-76
2022/02/16 04:25:24;;;;;;;1.27;0.70;;;;;;;7.63;97.67;99912.91;5048212;28;20027;-76
2022/02/16 04:27:51;;;;;;;1.52;0.70;;;;;;;7.58;97.85;99905.63;5052621;28;20266;-77
2022/02/16 04:30:19;;;;;;;0.88;0.70;;;;;;;7.70;97.92;99900.16;5049770;28;20024;-76
2022/02/16 04:32:45;;;;;;;1.15;0.60;;;;;;;7.61;97.88;99899.34;5045847;28;20039;-75
2022/02/16 04:35:10;;;;;;;1.55;0.60;;;;;;;7.73;97.71;99889.53;5046789;28;20028;-76
2022/02/16 04:37:36;;;;;;;2.80;0.70;;;;;;;7.74;98.21;99868.72;5036058;28;20486;-76
2022/02/16 04:40:03;;;;;;;1.33;0.60;;;;;;;7.65;97.82;99864.53;5033228;28;20043;-76
2022/02/16 04:42:29;;;;;;;1.80;0.60;;;;;;;7.70;98.21;99869.19;5045630;28;20029;-76
2022/02/16 04:44:54;;;;;;;1.30;0.70;;;;;;;7.64;98.16;99860.31;5046481;28;20470;-74
2022/02/16 04:47:20;;;;;;;0.80;0.70;;;;;;;7.65;98.56;99855.94;5049026;28;20404;-76
2022/02/16 04:49:46;;;;;;;2.08;0.80;;;;;;;7.75;98.04;99848.88;5048280;28;20430;-76
2022/02/16 04:52:12;;;;;;;1.30;0.80;;;;;;;7.68;98.19;99860.81;5048026;28;20040;-76
2022/02/16 04:54:40;;;;;;;0.88;0.65;;;;;;;7.81;98.13;99848.22;5034747;28;20028;-76
2022/02/16 04:57:06;;;;;;;0.90;0.77;;;;;;;7.78;98.02;99851.94;5048467;28;20024;-75
2022/02/16 04:59:39;;;;;;;1.00;0.70;;;;;;;7.77;97.78;99836.63;5052887;28;20032;-75
2022/02/16 05:02:05;;;;;;;2.97;0.68;;;;;;;7.75;98.09;99834.19;5050887;28;20032;-76
2022/02/16 05:04:31;;;;;;;1.05;0.60;;;;;;;7.85;97.73;99815.16;5045545;28;20411;-75
2022/02/16 05:06:57;;;;;;;0.95;0.57;;;;;;;7.75;98.25;99805.00;5049213;28;20119;-75
2022/02/16 05:09:23;;;;;;;0.95;0.60;;;;;;;7.74;98.37;99801.63;5064501;28;20082;-76
2022/02/16 05:11:49;;;;;;;1.10;0.70;;;;;;;7.73;98.74;99788.88;5051675;28;20088;-74
2022/02/16 05:14:16;;;;;;;1.00;0.70;;;;;;;7.68;98.41;99785.97;5037081;28;20482;-75
2022/02/16 05:16:46;;;;;;;1.15;0.77;;;;;;;7.66;98.76;99791.28;5050102;28;20040;-74
2022/02/16 05:19:14;;;;;;;0.85;0.60;;;;;;;7.79;98.27;99783.06;5045779;28;20032;-75
2022/02/16 05:21:41;;;;;;;2.58;0.45;;;;;;;7.76;98.31;99766.16;5029190;28;20070;-75
2022/02/16 05:24:11;;;;;;;1.20;0.65;;;;;;;7.78;97.83;99753.88;5049146;28;20521;-76
2022/02/16 05:26:40;;;;;;;1.58;0.50;;;;;;;7.83;97.85;99750.00;5051788;28;20337;-76
2022/02/16 05:29:06;;;;;;;0.60;0.40;;;;;;;7.89;97.53;99752.75;5044854;28;20036;-76
2022/02/16 05:31:34;;;;;;;0.98;0.60;;;;;;;7.89;96.89;99742.41;5028701;28;20060;-75
2022/02/16 05:34:01;;;;;;;1.95;0.50;;;;;;;7.93;96.52;99733.38;5031286;28;20032;-76
2022/02/16 05:36:27;;;;;;;1.02;0.38;;;;;;;8.07;95.84;99746.56;5043613;28;20066;-75
2022/02/16 05:38:52;;;;;;;1.27;0.52;;;;;;;7.94;95.91;99734.16;5047884;28;20028;-76
2022/02/16 05:41:18;;;;;;;1.23;0.50;;;;;;;7.96;95.62;99727.84;5029966;28;20028;-75
2022/02/16 05:43:43;;;;;;;2.50;0.60;;;;;;;8.02;95.82;99726.41;5046692;28;20041;-74
2022/02/16 05:46:13;;;;;;;4.75;0.40;;;;;;;8.07;95.34;99716.38;5050079;28;20059;-75
2022/02/16 05:48:39;;;;;;;0.65;0.40;;;;;;;8.15;94.61;99705.22;5032370;28;20391;-75
2022/02/16 05:51:05;;;;;;;0.88;0.55;;;;;;;8.05;94.98;99702.84;5051002;28;20039;-74
2022/02/16 05:53:33;;;;;;;2.15;0.43;;;;;;;7.97;95.25;99700.28;5045429;28;20296;-75
2022/02/16 05:55:59;;;;;;;0.40;0.30;;;;;;;8.21;94.41;99696.81;5047179;28;20029;-76
2022/02/16 05:58:25;;;;;;;1.20;0.40;;;;;;;8.15;94.26;99689.72;5051910;28;20027;-76
2022/02/16 06:00:50;;;;;;;0.47;0.40;;;;;;;8.16;94.55;99687.00;5030971;28;20024;-75
2022/02/16 06:03:33;;;;;;;;;;;;;;;8.21;94.31;99691.63;5050909;28;20040;-75
2022/02/16 06:05:59;;;;;;;1.83;1.10;;;;;;;8.22;93.87;99675.19;5046266;28;20385;-75
2022/02/16 06:08:24;;;;;;;0.88;0.55;;;;;;;8.24;93.92;99669.84;5049024;28;20024;-75
2022/02/16 06:10:52;;;;;;;1.88;0.50;;;;;;;8.34;93.31;99668.69;5048445;28;20403;-75
2022/02/16 06:13:19;;;;;;;2.42;0.30;;;;;;;8.27;93.49;99664.34;5049044;28;20032;-75
2022/02/16 06:15:45;;;;;;;0.60;0.60;;;;;;;8.23;93.63;99661.31;5047380;28;20060;-75
2022/02/16 06:18:11;;;;;;;0.82;0.57;;;;;;;8.23;93.84;99657.91;5044474;28;20051;-75
2022/02/16 06:20:36;;;;;;;0.40;0.30;;;;;;;8.27;93.57;99643.69;5050622;28;20421;-75
2022/02/16 06:23:02;;;;;;;1.48;0.60;;;;;;;8.18;94.41;99648.09;5045384;28;20036;-75
2022/02/16 06:25:30;;;;;;;0.95;0.50;;;;;;;8.23;94.42;99656.16;5045420;28;20029;-75
2022/02/16 06:27:56;;;;;;;0.40;0.30;;;;;;;8.33;93.51;99630.09;5047333;28;20128;-75
2022/02/16 06:30:22;;;;;;;0.82;0.30;;;;;;;8.38;93.27;99641.53;5044869;28;20139;-76
2022/02/16 06:32:50;;;;;;;0.40;0.30;;;;;;;8.39;93.38;99613.91;5046253;28;20040;-76
2022/02/16 06:35:17;;;;;;;3.08;0.30;;;;;;;8.42;93.49;99612.78;5028687;28;20033;-76
2022/02/16 06:37:45;;;;;;;0.40;0.30;;;;;;;8.37;93.97;99616.66;5046917;28;20032;-77
2022/02/16 06:40:11;;;;;;;2.85;0.40;;;;;;;8.32;94.81;99610.41;5053133;28;20032;-77
2022/02/16 06:42:41;;;;;;;0.30;0.30;;;;;;;8.32;95.27;99602.66;5047786;28;20036;-76
2022/02/16 06:45:09;;;;;;;39.97;19.70;;;;;;;8.31;95.56;99596.69;5031751;28;20111;-76
2022/02/16 06:47:42;;;;;;;1.05;0.65;;;;;;;8.35;95.69;99592.00;5047124;28;20402;-76
2022/02/16 06:50:09;;;;;;;1.95;1.52;;;;;;;8.29;96.42;99587.53;5031057;28;20422;-76
2022/02/16 06:52:36;;;;;;;4.13;1.80;;;;;;;8.20;97.34;99589.31;5047411;28;20036;-77
2022/02/16 06:55:01;;;;;;;1.83;1.10;;;;;;;8.22;97.97;99571.88;5052349;28;20051;-77
2022/02/16 06:57:27;;;;;;;3.15;1.00;;;;;;;8.21;97.93;99579.78;5032800;28;20040;-77
2022/02/16 07:00:03;;;;;;;3.08;1.80;;;;;;;8.28;98.25;99576.34;5031591;28;20051;-75
2022/02/16 07:02:29;;;;;;;4.60;1.70;;;;;;;8.27;98.43;99592.03;5046421;28;20063;-75
2022/02/16 07:04:56;;;;;;;3.10;1.75;;;;;;;8.25;98.39;99586.22;5045844;28;20037;-75
2022/02/16 07:07:22;;;;;;;0.43;0.43;;;;;;;8.21;98.22;99593.50;5029565;28;20160;-76
2022/02/16 07:09:47;;;;;;;0.70;0.50;;;;;;;8.27;98.30;99579.94;5046495;28;20627;-76
2022/02/16 07:12:13;;;;;;;0.80;0.80;;;;;;;8.33;98.29;99583.63;5046013;28;20532;-76
2022/02/16 07:14:39;;;;;;;0.93;0.60;;;;;;;8.33;98.20;99578.44;5045169;28;20074;-76
2022/02/16 07:17:05;;;;;;;0.70;0.50;;;;;;;8.49;97.46;99556.88;5030048;28;20032;-77
2022/02/16 07:19:31;;;;;;;0.40;0.40;;;;;;;8.49;97.61;99574.97;5044610;28;20032;-76
2022/02/16 07:22:19;;;;;;;1.85;0.52;;;;;;;8.46;97.70;99567.59;5054782;28;20171;-76
2022/02/16 07:24:46;;;;;;;1.65;0.30;;;;;;;8.46;97.65;99567.59;5045389;28;20483;-77
2022/02/16 07:27:12;;;;;;;0.30;0.30;;;;;;;8.47;98.00;99559.63;5047167;28;20097;-77
2022/02/16 07:29:38;;;;;;;1.65;0.40;;;;;;;8.45;98.36;99547.88;5034510;28;20033;-76
2022/02/16 07:32:05;;;;;;;2.50;1.20;;;;;;;8.41;98.71;99555.13;5047003;28;20120;-77
2022/02/16 07:34:31;;;;;;;0.30;0.20;;;;;;;8.48;98.86;99544.97;5049429;28;20082;-76
2022/02/16 07:37:03;;;;;;;1.30;1.00;;;;;;;8.47;98.99;99540.75;5051328;28;20098;-76
2022/02/16 07:39:29;;;;;;;6.22;3.13;;;;;;;8.54;98.94;99542.47;5049675;28;20051;-77
2022/02/16 07:41:55;;;;;;;7.72;5.30;;;;;;;8.59;98.62;99547.13;5052172;28;20475;-76
2022/02/16 07:44:40;;;;;;;2.58;0.98;;;;;;;8.54;98.34;99544.25;5049670;28;20032;-76
2022/02/16 07:47:18;;;;;;;0.90;0.30;;;;;;;8.65;97.85;99549.03;5037299;28;20029;-76
2022/02/16 07:49:44;;;;;;;1.77;0.50;;;;;;;8.63;97.51;99548.41;5032819;28;20029;-76
2022/02/16 07:52:48;;;;;;;0.20;0.20;;;;;;;8.63;97.61;99542.44;5051626;28;20668;-76
2022/02/16 07:55:26;;;;;;;2.08;0.60;;;;;;;8.66;97.37;99532.53;5046872;28;20059;-76
2022/02/16 07:57:53;;;;;;;2.50;0.30;;;;;;;8.73;96.99;99530.84;5049361;28;20703;-75
2022/02/16 08:00:19;;;;;;;0.43;0.20;;;;;;;8.79;96.47;99533.72;5033853;28;20047;-76
2022/02/16 08:02:56;;;;;;;0.38;0.22;;;;;;;8.79;96.84;99534.53;5051668;28;20035;-76
2022/02/16 08:05:24;;;;;;;0.45;0.35;;;;;;;8.79;97.03;99537.09;5055704;28;20437;-76
2022/02/16 08:07:50;;;;;;;2.60;0.50;;;;;;;8.83;97.97;99540.16;5032141;28;20040;-75
2022/02/16 08:10:15;;;;;;;0.70;0.50;;;;;;;8.82;97.79;99539.34;5032405;28;20475;-75
2022/02/16 08:12:44;;;;;;;2.42;0.63;;;;;;;8.86;98.23;99542.41;5051059;28;20067;-76
2022/02/16 08:15:10;;;;;;;0.77;0.40;;;;;;;8.85;98.35;99546.75;5066913;28;20117;-75
2022/02/16 08:17:38;;;;;;;0.30;0.20;;;;;;;8.82;99.04;99543.72;5047458;28;20035;-77
2022/02/16 08:20:06;;;;;;;1.08;0.30;;;;;;;8.87;99.01;99539.63;5054599;28;20028;-76
2022/02/16 08:22:37;;;;;;;1.58;0.30;;;;;;;8.81;100.00;99544.69;5057003;28;20502;-77
2022/02/16 08:25:04;;;;;;;1.20;0.20;;;;;;;8.80;100.00;99530.97;5051179;28;20040;-76
2022/02/16 08:27:50;;;;;;;2.10;0.40;;;;;;;8.82;100.00;99525.63;5067873;28;20033;-75
2022/02/16 08:30:18;;;;;;;2.15;0.50;;;;;;;8.81;100.00;99519.63;5049180;28;20031;-75
2022/02/16 08:32:48;;;;;;;0.25;0.20;;;;;;;8.84;100.00;99523.69;5049620;28;20043;-76
2022/02/16 08:35:28;;;;;;;1.45;0.40;;;;;;;8.93;100.00;99531.19;5052918;28;20036;-76
2022/02/16 08:37:54;;;;;;;3.58;0.25;;;;;;;9.00;100.00;99551.16;5048574;28;20047;-75
2022/02/16 08:40:22;;;;;;;0.60;0.30;;;;;;;8.97;100.00;99529.03;5051860;28;20039;-76
2022/02/16 08:42:47;;;;;;;1.58;0.47;;;;;;;9.04;100.00;99542.88;5033226;28;20048;-76
2022/02/16 08:45:13;;;;;;;2.50;0.40;;;;;;;8.99;100.00;99546.97;5060743;28;20029;-76
2022/02/16 08:47:39;;;;;;;0.20;0.20;;;;;;;9.05;100.00;99544.47;5050069;28;20093;-75
2022/02/16 08:50:05;;;;;;;1.58;0.30;;;;;;;9.07;100.00;99559.81;5049165;28;20083;-76
2022/02/16 08:52:30;;;;;;;1.63;0.38;;;;;;;9.11;100.00;99555.88;5051080;28;20096;-76
2022/02/16 08:54:56;;;;;;;2.30;0.40;;;;;;;9.06;100.00;99553.84;5050159;28;20058;-76
2022/02/16 08:57:22;;;;;;;0.93;0.40;;;;;;;9.04;100.00;99545.47;5063851;28;20035;-75
2022/02/16 08:59:48;;;;;;;0.30;0.30;;;;;;;9.14;100.00;99563.31;5047937;28;20550;-76
2022/02/16 09:02:13;;;;;;;0.80;0.40;;;;;;;9.12;100.00;99557.50;5049880;28;20785;-75
2022/02/16 09:04:39;;;;;;;0.55;0.47;;;;;;;9.07;100.00;99563.19;5047774;28;20032;-77
2022/02/16 09:09:49;;;;;;;1.10;0.40;;;;;;;9.11;100.00;99569.63;5047047;28;20510;-77
2022/02/16 09:12:14;;;;;;;1.02;0.65;;;;;;;9.20;100.00;99590.25;5047097;28;20024;-76
2022/02/16 09:14:40;;;;;;;1.00;0.75;;;;;;;9.18;100.00;99594.78;5067961;28;20178;-76
2022/02/16 09:17:06;;;;;;;0.73;0.47;;;;;;;9.19;100.00;99581.66;5041778;28;20051;-76
2022/02/16 09:19:32;;;;;;;0.82;0.50;;;;;;;9.23;100.00;99580.34;5049379;28;20395;-76
2022/02/16 09:21:58;;;;;;;1.58;0.60;;;;;;;9.23;100.00;99580.34;5049694;28;20093;-76
2022/02/16 09:24:24;;;;;;;1.60;0.75;;;;;;;9.23;100.00;99569.19;5064648;28;20032;-76
2022/02/16 09:26:50;;;;;;;2.22;0.95;;;;;;;9.28;100.00;99580.59;5048718;28;20283;-76
2022/02/16 09:29:20;;;;;;;1.75;0.80;;;;;;;9.27;100.00;99575.63;5068663;28;20043;-76
2022/02/16 09:31:51;;;;;;;1.30;1.00;;;;;;;9.39;100.00;99574.19;5046085;28;20072;-75
2022/02/16 09:34:16;;;;;;;7.40;1.08;;;;;;;9.40;100.00;99575.00;5067709;28;20475;-76
2022/02/16 09:36:42;;;;;;;0.88;0.88;;;;;;;9.45;100.00;99590.81;5029654;28;20093;-76
2022/02/16 09:39:08;;;;;;;1.58;1.02;;;;;;;9.39;100.00;99578.59;5047923;28;20036;-76
2022/02/16 09:41:33;;;;;;;1.20;0.95;;;;;;;9.31;100.00;99577.69;5060530;28;20090;-76
2022/02/16 09:43:59;;;;;;;2.45;1.08;;;;;;;9.39;100.00;99569.03;5047287;28;20036;-75
2022/02/16 09:46:26;;;;;;;2.15;1.20;;;;;;;9.42;100.00;99570.44;5065702;28;20051;-77
2022/02/16 09:48:51;;;;;;;1.10;1.00;;;;;;;9.42;100.00;99586.78;5050919;28;20047;-76
2022/02/16 09:51:18;;;;;;;2.92;1.10;;;;;;;9.46;100.00;99580.28;5068742;28;20031;-76
2022/02/16 09:53:44;;;;;;;1.35;0.90;;;;;;;9.57;100.00;99578.22;5051350;28;20032;-75
2022/02/16 09:56:10;;;;;;;1.45;1.10;;;;;;;9.54;100.00;99590.53;5053651;28;20047;-75
2022/02/16 09:58:35;;;;;;;3.42;1.15;;;;;;;9.53;100.00;99578.59;5052638;28;20036;-76
2022/02/16 10:01:08;;;;;;;1.52;1.10;;;;;;;9.56;100.00;99600.72;5067363;28;20047;-74
2022/02/16 10:03:35;;;;;;;1.10;1.00;;;;;;;9.53;100.00;99598.47;5064002;28;20112;-75
2022/02/16 10:06:02;;;;;;;7.10;1.45;;;;;;;9.67;100.00;99596.88;5031365;28;20051;-79
2022/02/16 10:08:48;;;;;;;3.13;1.10;;;;;;;9.66;100.00;99582.31;5031243;28;20036;-76
2022/02/16 10:11:15;;;;;;;1.08;0.90;;;;;;;9.75;100.00;99592.41;5046938;28;20110;-76
2022/02/16 10:13:42;;;;;;;0.88;0.80;;;;;;;9.80;100.00;99584.09;5047266;28;20036;-77
2022/02/16 10:16:08;;;;;;;3.85;0.93;;;;;;;9.87;100.00;99579.81;5063599;28;20040;-76
2022/02/16 10:18:57;;;;;;;0.90;0.90;;;;;;;9.97;100.00;99586.50;5048485;28;20085;-77
2022/02/16 10:21:22;;;;;;;0.98;0.90;;;;;;;9.93;100.00;99584.25;5032261;28;20414;-77
2022/02/16 10:23:50;;;;;;;1.23;0.70;;;;;;;9.97;100.00;99589.88;5050109;28;20097;-76
2022/02/16 10:26:15;;;;;;;0.82;0.70;;;;;;;9.91;100.00;99588.81;5047702;28;20549;-76
2022/02/16 10:28:42;;;;;;;3.47;1.02;;;;;;;10.03;100.00;99604.69;5065663;28;20086;-76
2022/02/16 10:31:09;;;;;;;1.98;0.93;;;;;;;10.01;100.00;99588.53;5053418;28;20036;-77
2022/02/16 10:33:39;;;;;;;0.73;0.70;;;;;;;10.07;100.00;99587.81;5048954;28;20052;-77
2022/02/16 10:36:12;;;;;;;0.98;0.77;;;;;;;10.11;100.00;99603.78;5046867;28;20033;-76
2022/02/16 10:39:03;;;;;;;1.00;0.77;;;;;;;10.13;100.00;99591.44;5047042;28;20044;-76
2022/02/16 10:41:34;;;;;;;0.90;0.80;;;;;;;10.18;100.00;99596.91;5048504;28;20093;-75
2022/02/16 10:44:00;;;;;;;1.27;0.80;;;;;;;10.19;100.00;99592.50;5046952;28;20041;-76
2022/02/16 10:46:28;;;;;;;4.03;0.73;;;;;;;10.25;100.00;99597.78;5047022;28;20027;-76
2022/02/16 10:49:16;;;;;;;1.30;0.73;;;;;;;10.23;100.00;99591.97;5045931;28;20029;-77
2022/02/16 10:51:44;;;;;;;3.65;1.65;;;;;;;10.36;100.00;99598.31;5064715;28;20127;-76
2022/02/16 10:54:22;;;;;;;1.58;0.80;;;;;;;10.46;100.00;99591.03;5064696;28;20038;-76
2022/02/16 10:56:51;;;;;;;0.90;0.90;;;;;;;10.34;100.00;99588.16;5067527;28;20090;-77
2022/02/16 10:59:17;;;;;;;1.55;1.00;;;;;;;10.44;100.00;99595.63;5068495;28;20028;-76
2022/02/16 11:01:44;;;;;;;0.60;0.60;;;;;;;10.36;100.00;99590.53;5076998;28;20029;-75
2022/02/16 11:04:13;;;;;;;1.25;1.00;;;;;;;10.48;100.00;99589.06;5034218;28;20063;-75
2022/02/16 11:06:44;;;;;;;37.53;15.20;;;;;;;10.44;100.00;99590.44;5051799;28;20059;-76
2022/02/16 11:09:24;;;;;;;43.50;15.77;;;;;;;10.54;100.00;99569.38;5067794;28;20036;-77
2022/02/16 11:11:52;;;;;;;13.27;6.95;;;;;;;10.59;100.00;99591.16;5065875;28;20254;-77
2022/02/16 11:14:21;;;;;;;4.57;3.00;;;;;;;10.67;100.00;99582.47;5069531;28;20043;-77
2022/02/16 11:16:48;;;;;;;3.42;2.00;;;;;;;10.73;100.00;99571.34;5053998;28;20032;-76
2022/02/16 11:19:37;;;;;;;2.50;2.08;;;;;;;10.80;100.00;99555.84;5062305;28;20370;-76
2022/02/16 11:22:06;;;;;;;10.40;5.65;;;;;;;10.76;100.00;99559.81;5068535;28;20517;-80
2022/02/16 11:24:42;;;;;;;5.40;2.17;;;;;;;10.81;100.00;99542.69;5074538;28;20056;-78
2022/02/16 11:27:38;;;;;;;3.92;2.30;;;;;;;10.92;100.00;99551.75;5031425;28;20179;-77
2022/02/16 11:30:28;;;;;;;1.88;1.73;;;;;;;10.98;100.00;99542.41;5067023;28;20101;-76
2022/02/16 11:33:13;;;;;;;4.03;1.35;;;;;;;11.05;100.00;99525.09;5050902;28;20044;-77
2022/02/16 11:36:06;;;;;;;2.50;1.60;;;;;;;11.04;100.00;99542.47;5069231;28;20223;-76
2022/02/16 11:38:40;;;;;;;;;;;;;;;11.04;100.00;99528.69;5032043;28;20040;-77
2022/02/16 11:41:21;;;;;;;4.50;1.60;;;;;;;11.05;100.00;99538.06;5034086;28;19920;-77
2022/02/16 11:44:00;;;;;;;3.50;1.60;;;;;;;10.98;100.00;99527.66;5049242;28;20044;-76
2022/02/16 11:46:44;;;;;;;1.75;1.38;;;;;;;11.10;100.00;99541.69;5031620;28;20045;-77